Time;durP1;ratioP1;P1;durP2;ratioP2;P2;SDS_P1;SDS_P2;PMS_P1;PMS_P2;Temp;Humidity;BMP_temperature;BMP_pressure;BME280_temperature;BME280_humidity;BME280_pressure;Samples;Min_cycle;Max_cycle;Signal;HPM_P1;HPM_P2
2023/10/01 00:08:14;;;;;;;;;;;11.40;99.90;;;;;;20985199;28;19917;-80
2023/10/01 00:18:14;;;;;;;;;;;11.20;99.90;;;;;;21003376;28;20023;-80
2023/10/01 00:28:15;;;;;;;;;;;11.10;99.90;;;;;;21025307;28;19916;-80
2023/10/01 00:38:16;;;;;;;;;;;11.00;99.90;;;;;;21001585;28;20442;-80
2023/10/01 00:48:18;;;;;;;;;;;10.60;99.90;;;;;;21003921;28;19921;-80
2023/10/01 00:58:19;;;;;;;;;;;10.50;99.90;;;;;;21017115;28;19919;-80
2023/10/01 01:08:28;;;;;;;;;;;10.70;99.90;;;;;;21007758;28;20294;-80
2023/10/01 01:18:33;;;;;;;;;;;10.60;99.90;;;;;;21005309;28;19916;-80
2023/10/01 01:28:37;;;;;;;;;;;10.70;99.90;;;;;;21005980;28;20279;-80
2023/10/01 01:39:10;;;;;;;;;;;10.40;99.90;;;;;;21013179;28;19923;-80
2023/10/01 01:49:11;;;;;;;;;;;10.30;99.90;;;;;;20994959;28;19924;-80
2023/10/01 01:59:15;;;;;;;;;;;10.10;99.90;;;;;;21002381;28;19916;-80
2023/10/01 02:09:19;;;;;;;;;;;10.30;99.90;;;;;;21012005;28;20062;-80
2023/10/01 02:19:21;;;;;;;;;;;10.30;99.90;;;;;;21020465;28;19912;-80
2023/10/01 02:29:25;;;;;;;;;;;9.90;99.90;;;;;;20995974;28;20792;-80
2023/10/01 02:39:29;;;;;;;;;;;10.10;99.90;;;;;;20996740;28;19927;-79
2023/10/01 02:49:33;;;;;;;;;;;9.90;99.90;;;;;;21002700;28;20016;-80
2023/10/01 02:59:36;;;;;;;;;;;9.80;99.90;;;;;;20997487;28;19920;-79
2023/10/01 03:09:40;;;;;;;;;;;9.90;99.90;;;;;;20982843;28;20298;-80
2023/10/01 03:19:40;;;;;;;;;;;9.80;99.90;;;;;;21022075;28;20319;-79
2023/10/01 03:29:42;;;;;;;;;;;9.60;99.90;;;;;;20983419;28;19925;-79
2023/10/01 03:39:43;;;;;;;;;;;9.50;99.90;;;;;;20991629;28;20003;-80
2023/10/01 03:49:44;;;;;;;;;;;9.90;99.90;;;;;;21001316;28;19924;-79
2023/10/01 03:59:54;;;;;;;;;;;10.10;99.90;;;;;;20997710;28;19995;-80
2023/10/01 04:09:55;;;;;;;;;;;10.10;99.90;;;;;;21003895;28;19916;-82
2023/10/01 04:20:00;;;;;;;;;;;10.40;99.90;;;;;;20998507;28;20000;-80
2023/10/01 04:30:07;;;;;;;;;;;10.60;99.90;;;;;;21011253;28;21437;-80
2023/10/01 04:50:29;;;;;;;;;;;10.40;99.90;;;;;;21029359;28;19984;-78
2023/10/01 05:00:30;;;;;;;;;;;10.20;99.90;;;;;;21002402;28;19913;-79
2023/10/01 05:10:50;;;;;;;;;;;9.90;99.90;;;;;;21016418;28;19923;-79
2023/10/01 05:20:58;;;;;;;;;;;9.80;99.90;;;;;;21019455;28;19912;-79
2023/10/01 05:31:06;;;;;;;;;;;9.70;99.90;;;;;;21026185;28;19923;-79
2023/10/01 05:41:09;;;;;;;;;;;9.70;99.90;;;;;;21001814;28;19912;-80
2023/10/01 05:51:14;;;;;;;;;;;9.90;99.90;;;;;;21014211;28;21719;-79
2023/10/01 06:01:16;;;;;;;;;;;10.10;99.90;;;;;;21017380;28;19958;-78
2023/10/01 06:11:17;;;;;;;;;;;10.60;99.90;;;;;;21000355;28;19924;-77
2023/10/01 06:21:18;;;;;;;;;;;10.80;99.90;;;;;;21031566;28;20008;-78
2023/10/01 06:31:20;;;;;;;;;;;11.60;99.90;;;;;;21016688;28;19928;-80
2023/10/01 06:41:25;;;;;;;;;;;11.80;99.90;;;;;;21057858;28;19996;-83
2023/10/01 06:51:26;;;;;;;;;;;12.30;99.90;;;;;;21055946;28;19916;-80
2023/10/01 07:01:35;;;;;;;;;;;13.10;99.90;;;;;;21038140;28;20015;-78
2023/10/01 07:11:36;;;;;;;;;;;13.50;99.90;;;;;;21027096;28;19917;-79
2023/10/01 07:21:41;;;;;;;;;;;14.40;99.90;;;;;;21027323;28;19920;-81
2023/10/01 07:31:43;;;;;;;;;;;15.30;99.90;;;;;;21031778;28;19946;-80
2023/10/01 07:41:44;;;;;;;;;;;14.90;99.90;;;;;;21036209;28;19927;-78
2023/10/01 07:51:48;;;;;;;;;;;16.00;99.90;;;;;;21042953;28;19916;-80
2023/10/01 08:02:07;;;;;;;;;;;16.60;99.90;;;;;;21033245;28;20442;-79
2023/10/01 08:12:08;;;;;;;;;;;17.10;99.90;;;;;;21019615;28;19955;-79
2023/10/01 08:22:15;;;;;;;;;;;17.80;99.90;;;;;;21039263;28;19969;-78
2023/10/01 08:32:22;;;;;;;;;;;18.40;99.90;;;;;;21025483;28;19916;-80
2023/10/01 08:42:28;;;;;;;;;;;18.20;99.90;;;;;;21014518;28;19920;-80
2023/10/01 08:52:30;;;;;;;;;;;18.70;99.90;;;;;;21008592;28;20299;-80
2023/10/01 09:02:38;;;;;;;;;;;19.10;99.90;;;;;;21017499;28;20272;-78
2023/10/01 09:12:45;;;;;;;;;;;19.50;99.90;;;;;;21017542;28;19947;-79
2023/10/01 09:22:59;;;;;;;;;;;20.20;99.90;;;;;;21023872;28;19912;-80
2023/10/01 09:33:04;;;;;;;;;;;21.30;99.90;;;;;;21029963;28;19963;-80
2023/10/01 09:43:17;;;;;;;;;;;21.20;99.90;;;;;;21010654;28;20405;-80
2023/10/01 09:53:22;;;;;;;;;;;22.00;99.90;;;;;;21018632;28;19931;-78
2023/10/01 10:03:23;;;;;;;;;;;23.10;99.90;;;;;;21043911;28;19959;-76
2023/10/01 10:13:48;;;;;;;;;;;24.00;99.90;;;;;;21046761;28;19923;-78
2023/10/01 10:23:55;;;;;;;;;;;23.70;99.90;;;;;;21037166;28;19919;-77
2023/10/01 10:34:24;;;;;;;;;;;24.60;99.90;;;;;;21028508;28;20371;-77
2023/10/01 10:44:28;;;;;;;;;;;24.10;99.90;;;;;;21021707;28;19938;-76
2023/10/01 10:54:29;;;;;;;;;;;24.50;99.90;;;;;;21020364;28;19948;-77
2023/10/01 11:04:31;;;;;;;;;;;25.70;99.90;;;;;;21026415;28;19923;-77
2023/10/01 11:14:33;;;;;;;;;;;26.00;99.90;;;;;;21027261;28;20398;-78
2023/10/01 11:24:41;;;;;;;;;;;27.00;99.90;;;;;;21009597;28;19920;-78
2023/10/01 11:34:43;;;;;;;;;;;26.80;99.90;;;;;;21025766;28;19924;-77
2023/10/01 11:44:44;;;;;;;;;;;27.60;99.90;;;;;;21013008;28;19936;-78
2023/10/01 11:54:44;;;;;;;;;;;27.70;99.90;;;;;;21024852;28;20037;-78
2023/10/01 12:04:48;;;;;;;;;;;27.00;99.90;;;;;;21013592;28;19942;-78
2023/10/01 12:14:55;;;;;;;;;;;28.00;99.90;;;;;;21020354;28;20288;-78
2023/10/01 12:24:59;;;;;;;;;;;27.60;99.90;;;;;;21005096;28;19923;-78
2023/10/01 12:35:18;;;;;;;;;;;26.90;99.90;;;;;;21017630;28;19924;-78
2023/10/01 12:45:27;;;;;;;;;;;27.30;99.90;;;;;;21030255;28;19912;-79
2023/10/01 12:55:29;;;;;;;;;;;28.50;99.90;;;;;;21034510;28;19921;-78
2023/10/01 13:05:43;;;;;;;;;;;26.80;99.90;;;;;;21028876;28;19917;-78
2023/10/01 13:15:44;;;;;;;;;;;26.10;99.90;;;;;;21020051;28;20014;-78
2023/10/01 13:26:05;;;;;;;;;;;28.10;99.90;;;;;;21023738;28;19932;-78
2023/10/01 13:36:12;;;;;;;;;;;28.20;99.90;;;;;;21025887;28;19941;-79
2023/10/01 14:17:14;;;;;;;;;;;26.60;99.90;;;;;;21031299;28;19954;-77
2023/10/01 14:27:24;;;;;;;;;;;27.20;99.90;;;;;;21012294;28;19924;-78
2023/10/01 14:37:25;;;;;;;;;;;28.40;99.90;;;;;;21001734;28;19913;-79
2023/10/01 14:47:26;;;;;;;;;;;28.50;99.90;;;;;;20999264;28;19924;-79
2023/10/01 14:57:28;;;;;;;;;;;27.90;99.90;;;;;;21021337;28;20375;-78
2023/10/01 15:07:28;;;;;;;;;;;27.60;99.90;;;;;;21046260;28;19916;-78
2023/10/01 15:17:32;;;;;;;;;;;28.40;98.00;;;;;;21026907;28;19922;-77
2023/10/01 15:27:39;;;;;;;;;;;27.50;98.50;;;;;;21027555;28;19917;-77
2023/10/01 15:37:40;;;;;;;;;;;27.50;99.20;;;;;;21039033;28;19917;-77
2023/10/01 15:47:45;;;;;;;;;;;26.80;99.00;;;;;;21025523;28;19963;-78
2023/10/01 15:58:01;;;;;;;;;;;26.30;99.90;;;;;;21030977;28;19920;-78
2023/10/01 16:08:01;;;;;;;;;;;25.00;99.90;;;;;;20995533;28;20371;-78
2023/10/01 16:18:08;;;;;;;;;;;24.70;99.90;;;;;;21000788;28;20011;-77
2023/10/01 16:28:24;;;;;;;;;;;24.20;99.90;;;;;;21015018;28;19916;-78
2023/10/01 16:38:26;;;;;;;;;;;23.70;99.90;;;;;;21030105;28;19920;-78
2023/10/01 16:48:29;;;;;;;;;;;23.30;99.90;;;;;;21002862;28;19920;-78
2023/10/01 16:58:33;;;;;;;;;;;22.40;99.90;;;;;;21014821;28;20380;-78
2023/10/01 17:08:40;;;;;;;;;;;21.90;99.90;;;;;;21013155;28;19916;-78
2023/10/01 17:18:48;;;;;;;;;;;21.80;99.90;;;;;;21000542;28;19935;-79
2023/10/01 17:28:49;;;;;;;;;;;19.70;99.90;;;;;;21012009;28;20303;-80
2023/10/01 17:38:53;;;;;;;;;;;19.70;99.90;;;;;;21022434;28;20004;-81
2023/10/01 17:48:55;;;;;;;;;;;19.00;99.90;;;;;;20999015;28;19923;-80
2023/10/01 17:58:55;;;;;;;;;;;18.00;99.90;;;;;;21006139;28;19912;-80
2023/10/01 18:08:57;;;;;;;;;;;17.20;99.90;;;;;;21010006;28;19928;-79
2023/10/01 18:19:06;;;;;;;;;;;17.70;99.90;;;;;;20984887;28;19919;-79
2023/10/01 18:29:14;;;;;;;;;;;17.90;99.90;;;;;;21007703;28;20015;-79
2023/10/01 18:39:26;;;;;;;;;;;18.20;99.90;;;;;;21005148;28;20003;-79
2023/10/01 18:49:28;;;;;;;;;;;18.00;99.90;;;;;;20997717;28;19916;-78
2023/10/01 18:59:29;;;;;;;;;;;17.30;99.90;;;;;;20986256;28;19919;-79
2023/10/01 19:09:34;;;;;;;;;;;17.10;99.90;;;;;;20965030;28;20368;-78
2023/10/01 19:19:35;;;;;;;;;;;16.30;99.90;;;;;;20969054;28;20374;-79
2023/10/01 19:29:36;;;;;;;;;;;16.30;99.90;;;;;;20997769;28;20409;-79
2023/10/01 19:39:42;;;;;;;;;;;16.20;99.90;;;;;;20994413;28;19913;-79
2023/10/01 19:49:43;;;;;;;;;;;16.10;99.90;;;;;;20996723;28;19920;-78
2023/10/01 19:59:44;;;;;;;;;;;15.80;99.90;;;;;;20972969;28;19962;-79
2023/10/01 20:09:46;;;;;;;;;;;15.40;99.90;;;;;;20987330;28;19917;-79
2023/10/01 20:19:47;;;;;;;;;;;15.00;99.90;;;;;;20997343;28;19966;-79
2023/10/01 20:29:48;;;;;;;;;;;15.00;99.90;;;;;;20995509;28;19916;-78
2023/10/01 20:39:49;;;;;;;;;;;14.50;99.90;;;;;;20998891;28;19912;-79
2023/10/01 20:49:51;;;;;;;;;;;14.40;99.90;;;;;;20994913;28;19930;-79
2023/10/01 20:59:54;;;;;;;;;;;14.30;99.90;;;;;;20994017;28;20290;-79
2023/10/01 21:09:56;;;;;;;;;;;14.80;99.90;;;;;;21017840;28;19923;-79
2023/10/01 21:20:09;;;;;;;;;;;14.80;99.90;;;;;;21019855;28;19912;-78
2023/10/01 21:30:13;;;;;;;;;;;15.20;99.90;;;;;;20955969;28;19920;-78
2023/10/01 21:40:21;;;;;;;;;;;15.50;99.90;;;;;;20980162;28;20456;-79
2023/10/01 21:50:30;;;;;;;;;;;15.50;99.90;;;;;;20998220;28;20260;-79
2023/10/01 22:10:51;;;;;;;;;;;14.50;99.90;;;;;;20994653;28;20264;-79
2023/10/01 22:21:06;;;;;;;;;;;14.20;99.90;;;;;;21013680;28;19912;-79
2023/10/01 22:31:07;;;;;;;;;;;14.00;99.90;;;;;;21001857;28;19916;-81
2023/10/01 22:41:09;;;;;;;;;;;14.30;99.90;;;;;;20976798;28;19919;-81
2023/10/01 22:51:23;;;;;;;;;;;14.50;99.90;;;;;;20969303;28;19920;-81
2023/10/01 23:01:26;;;;;;;;;;;14.60;99.90;;;;;;20982222;28;19920;-81
2023/10/01 23:11:27;;;;;;;;;;;14.40;99.90;;;;;;21001971;28;20000;-81
2023/10/01 23:21:43;;;;;;;;;;;14.40;99.90;;;;;;20959323;28;19924;-81
2023/10/01 23:31:49;;;;;;;;;;;14.30;99.90;;;;;;20981336;28;19947;-82
2023/10/01 23:41:52;;;;;;;;;;;14.20;99.90;;;;;;20970035;28;19996;-80
2023/10/01 23:51:53;;;;;;;;;;;14.10;99.90;;;;;;20971675;28;19918;-80
